createdAt,value
2018-04-27T00:00:30.808Z,69.79
2018-04-27T00:02:59.175Z,69.81
2018-04-27T00:05:27.488Z,69.75
2018-04-27T00:07:55.835Z,69.58
2018-04-27T00:10:24.162Z,69.85
2018-04-27T00:12:52.512Z,69.63
2018-04-27T00:15:20.832Z,69.30
2018-04-27T00:17:49.180Z,69.61
2018-04-27T00:20:17.508Z,69.39
2018-04-27T00:22:45.851Z,69.00
2018-04-27T00:25:14.180Z,69.31
2018-04-27T00:27:42.530Z,69.43
2018-04-27T00:30:10.852Z,69.57
2018-04-27T00:32:39.196Z,69.41
2018-04-27T00:35:07.522Z,69.67
2018-04-27T00:37:35.869Z,69.63
2018-04-27T00:40:04.192Z,69.73
2018-04-27T00:42:32.542Z,69.83
2018-04-27T00:45:00.870Z,69.53
2018-04-27T00:47:29.215Z,69.58
2018-04-27T00:49:57.550Z,69.56
2018-04-27T00:52:25.897Z,69.23
2018-04-27T00:54:54.229Z,69.04
2018-04-27T00:57:22.572Z,69.12
2018-04-27T00:59:50.904Z,69.18
2018-04-27T01:02:19.253Z,69.37
2018-04-27T01:04:47.579Z,69.11
2018-04-27T01:07:15.927Z,69.06
2018-04-27T01:09:44.253Z,68.91
2018-04-27T01:12:12.596Z,68.50
2018-04-27T01:14:40.916Z,68.15
2018-04-27T01:17:09.252Z,67.85
2018-04-27T01:19:37.575Z,67.46
2018-04-27T01:22:05.921Z,67.53
2018-04-27T01:24:34.243Z,67.49
2018-04-27T01:27:02.580Z,67.34
2018-04-27T01:29:30.904Z,67.33
2018-04-27T01:31:59.220Z,67.37
2018-04-27T01:34:27.565Z,67.46
2018-04-27T01:36:55.888Z,67.77
2018-04-27T01:39:24.233Z,67.98
2018-04-27T01:41:52.553Z,68.05
2018-04-27T01:44:20.901Z,67.92
2018-04-27T01:46:49.227Z,67.81
2018-04-27T01:49:17.565Z,67.67
2018-04-27T01:51:45.883Z,67.48
2018-04-27T01:54:14.229Z,67.42
2018-04-27T01:56:42.561Z,67.38
2018-04-27T01:59:10.906Z,67.48
2018-04-27T02:01:39.215Z,67.29
2018-04-27T02:04:07.569Z,67.55
2018-04-27T02:06:35.892Z,67.55
2018-04-27T02:09:04.246Z,68.30
2018-04-27T02:11:32.573Z,68.82
2018-04-27T02:14:00.912Z,68.97
2018-04-27T02:16:29.572Z,69.34
2018-04-27T02:18:57.904Z,69.72
2018-04-27T02:21:26.228Z,69.91
2018-04-27T02:23:54.581Z,70.41
2018-04-27T02:26:22.900Z,70.39
2018-04-27T02:28:51.245Z,70.31
2018-04-27T02:31:19.575Z,69.96
2018-04-27T02:33:47.917Z,69.83
2018-04-27T02:36:16.240Z,69.53
2018-04-27T02:38:44.595Z,69.34
2018-04-27T02:41:12.912Z,69.01
2018-04-27T02:43:41.256Z,68.79
2018-04-27T02:46:09.581Z,68.60
2018-04-27T02:48:37.929Z,68.55
2018-04-27T02:51:06.256Z,68.56
2018-04-27T02:53:34.603Z,68.43
2018-04-27T02:56:02.928Z,68.52
2018-04-27T02:58:31.284Z,68.45
2018-04-27T03:00:59.608Z,68.32
2018-04-27T03:03:27.952Z,68.27
2018-04-27T03:05:56.330Z,68.00
2018-04-27T03:08:24.672Z,68.00
2018-04-27T03:10:52.989Z,68.14
2018-04-27T03:13:21.338Z,68.71
2018-04-27T03:15:49.661Z,68.90
2018-04-27T03:18:18.009Z,68.83
2018-04-27T03:20:46.345Z,68.69
2018-04-27T03:23:14.692Z,68.60
2018-04-27T03:25:43.021Z,68.83
2018-04-27T03:28:11.372Z,69.14
2018-04-27T03:30:39.701Z,69.51
2018-04-27T03:33:08.022Z,69.84
2018-04-27T03:35:36.373Z,69.96
2018-04-27T03:38:04.697Z,69.74
2018-04-27T03:40:33.047Z,70.20
2018-04-27T03:43:01.377Z,70.33
2018-04-27T03:45:29.740Z,70.37
2018-04-27T03:47:58.057Z,70.60
2018-04-27T03:50:26.397Z,70.74
2018-04-27T03:52:54.720Z,70.56
2018-04-27T03:55:23.064Z,70.41
2018-04-27T03:57:51.391Z,70.38
2018-04-27T04:00:31.720Z,70.22
2018-04-27T04:03:11.949Z,69.89
2018-04-27T04:05:40.291Z,69.69
2018-04-27T04:08:08.661Z,69.41
2018-04-27T04:10:36.969Z,69.57
2018-04-27T04:13:05.297Z,69.85
2018-04-27T04:15:33.649Z,70.12
2018-04-27T04:18:01.972Z,70.51
2018-04-27T04:20:30.312Z,70.51
2018-04-27T04:22:58.645Z,70.39
2018-04-27T04:25:26.998Z,70.37
2018-04-27T04:27:55.316Z,70.30
2018-04-27T04:30:23.664Z,70.38
2018-04-27T04:32:51.992Z,70.46
2018-04-27T04:35:20.332Z,70.46
2018-04-27T04:37:48.664Z,70.19
2018-04-27T04:40:17.012Z,70.45
2018-04-27T04:42:45.344Z,70.38
2018-04-27T04:45:13.701Z,70.24
2018-04-27T04:47:42.016Z,70.04
2018-04-27T04:50:10.369Z,70.24
2018-04-27T04:52:38.716Z,70.17
2018-04-27T04:55:07.040Z,70.07
2018-04-27T04:57:35.380Z,69.88
2018-04-27T05:00:03.728Z,70.15
2018-04-27T05:02:32.060Z,70.18
2018-04-27T05:05:00.412Z,70.32
2018-04-27T05:07:29.708Z,70.57
2018-04-27T05:09:58.060Z,70.45
2018-04-27T05:12:26.388Z,70.59
2018-04-27T05:14:54.740Z,70.77
2018-04-27T05:17:23.069Z,70.60
2018-04-27T05:19:54.783Z,70.56
2018-04-27T05:22:23.112Z,70.34
2018-04-27T05:24:51.453Z,70.22
2018-04-27T05:27:19.783Z,70.04
2018-04-27T05:29:49.287Z,69.85
2018-04-27T05:32:17.532Z,69.66
2018-04-27T05:34:45.879Z,69.36
2018-04-27T05:37:14.213Z,68.61
2018-04-27T05:39:42.576Z,68.35
2018-04-27T05:42:10.914Z,68.16
2018-04-27T05:44:39.274Z,67.85
2018-04-27T05:47:07.609Z,67.27
2018-04-27T05:49:35.964Z,67.27
2018-04-27T05:52:04.303Z,66.66
2018-04-27T05:54:32.778Z,65.68
2018-04-27T05:57:01.089Z,64.53
2018-04-27T05:59:29.420Z,63.99
2018-04-27T06:01:57.781Z,63.07
2018-04-27T06:04:26.117Z,62.46
2018-04-27T06:06:55.400Z,61.67
2018-04-27T06:09:24.551Z,61.15
2018-04-27T06:11:52.921Z,61.00
2018-04-27T06:14:21.254Z,60.27
2018-04-27T06:16:49.608Z,60.69
2018-04-27T06:19:17.945Z,60.52
2018-04-27T06:21:46.304Z,59.82
2018-04-27T06:24:14.640Z,59.23
2018-04-27T06:26:43.001Z,58.13
2018-04-27T06:29:11.568Z,57.92
2018-04-27T06:31:39.939Z,57.72
2018-04-27T06:34:08.269Z,58.25
2018-04-27T06:36:36.632Z,58.03
2018-04-27T06:39:04.965Z,57.66
2018-04-27T06:41:33.329Z,57.87
2018-04-27T06:44:01.660Z,58.26
2018-04-27T06:46:30.527Z,58.79
2018-04-27T06:48:59.807Z,57.57
2018-04-27T06:51:28.158Z,57.25
2018-04-27T06:53:56.487Z,58.13
2018-04-27T06:56:24.846Z,57.23
2018-04-27T06:58:53.176Z,58.20
2018-04-27T07:01:21.533Z,58.29
2018-04-27T07:03:49.864Z,57.72
2018-04-27T07:06:18.213Z,57.77
2018-04-27T07:08:46.536Z,57.21
2018-04-27T07:11:14.897Z,58.13
2018-04-27T07:13:43.213Z,57.58
2018-04-27T07:16:11.565Z,58.19
2018-04-27T07:18:39.898Z,57.96
2018-04-27T07:21:08.252Z,57.89
2018-04-27T07:23:36.585Z,58.39
2018-04-27T07:26:04.928Z,59.32
2018-04-27T07:28:34.153Z,60.29
2018-04-27T07:31:02.500Z,61.44
2018-04-27T07:33:30.834Z,60.29
2018-04-27T07:35:59.180Z,61.14
2018-04-27T07:38:27.504Z,60.81
2018-04-27T07:40:55.857Z,61.23
2018-04-27T07:43:24.179Z,60.98
2018-04-27T07:45:52.528Z,60.90
2018-04-27T07:48:20.874Z,60.81
2018-04-27T07:50:49.216Z,60.28
2018-04-27T07:53:17.548Z,60.99
2018-04-27T07:55:45.902Z,60.27
2018-04-27T07:58:14.245Z,60.26
2018-04-27T08:00:42.609Z,59.50
2018-04-27T08:03:10.940Z,59.40
2018-04-27T08:05:39.269Z,61.15
2018-04-27T08:08:08.514Z,60.36
2018-04-27T08:10:36.845Z,58.45
2018-04-27T08:13:05.222Z,58.69
2018-04-27T08:15:33.567Z,58.62
2018-04-27T08:18:01.917Z,60.07
2018-04-27T08:20:30.240Z,60.11
2018-04-27T08:22:59.516Z,59.61
2018-04-27T08:25:27.896Z,58.19
2018-04-27T08:27:56.242Z,58.17
2018-04-27T08:30:24.564Z,57.81
2018-04-27T08:32:52.945Z,59.25
2018-04-27T08:35:21.284Z,58.87
2018-04-27T08:37:49.627Z,59.17
2018-04-27T08:40:17.952Z,58.82
2018-04-27T08:42:46.305Z,58.34
2018-04-27T08:45:14.624Z,58.12
2018-04-27T08:47:42.980Z,57.51
2018-04-27T08:50:11.309Z,57.31
2018-04-27T08:52:39.656Z,57.80
2018-04-27T08:55:07.987Z,57.46
2018-04-27T08:57:36.340Z,57.79
2018-04-27T09:00:04.673Z,56.30
2018-04-27T09:02:33.026Z,56.12
2018-04-27T09:05:01.352Z,56.16
2018-04-27T09:07:30.625Z,54.35
2018-04-27T09:09:58.973Z,54.57
2018-04-27T09:12:27.317Z,54.72
2018-04-27T09:14:55.648Z,54.22
2018-04-27T09:17:24.013Z,54.17
2018-04-27T09:19:52.405Z,54.49
2018-04-27T09:22:20.762Z,53.95
2018-04-27T09:24:49.088Z,54.40
2018-04-27T09:27:18.337Z,53.42
2018-04-27T09:29:46.668Z,50.46
2018-04-27T09:32:15.198Z,50.97
2018-04-27T09:34:43.487Z,51.58
2018-04-27T09:37:11.842Z,52.60
2018-04-27T09:39:40.177Z,52.22
2018-04-27T09:42:08.524Z,52.63
2018-04-27T09:44:36.852Z,50.74
2018-04-27T09:47:05.195Z,47.75
2018-04-27T09:49:33.517Z,46.33
2018-04-27T09:52:01.862Z,45.62
2018-04-27T09:54:30.191Z,45.67
2018-04-27T09:56:58.545Z,45.39
2018-04-27T09:59:26.870Z,45.68
2018-04-27T10:01:55.221Z,45.58
2018-04-27T10:04:23.543Z,44.29
2018-04-27T10:06:51.865Z,46.30
2018-04-27T10:09:20.212Z,43.12
2018-04-27T10:11:48.545Z,44.21
2018-04-27T10:14:16.889Z,44.48
2018-04-27T10:16:45.212Z,44.26
2018-04-27T10:19:13.557Z,44.47
2018-04-27T10:21:41.882Z,42.20
2018-04-27T10:24:10.225Z,44.13
2018-04-27T10:26:38.553Z,43.77
2018-04-27T10:29:06.905Z,44.21
2018-04-27T10:31:35.221Z,44.10
2018-04-27T10:34:03.565Z,43.25
2018-04-27T10:36:32.009Z,43.30
2018-04-27T10:39:00.262Z,45.02
2018-04-27T10:41:28.584Z,44.33
2018-04-27T10:43:56.932Z,43.02
2018-04-27T10:46:25.256Z,42.73
2018-04-27T10:48:53.604Z,43.11
2018-04-27T10:51:21.924Z,43.89
2018-04-27T10:53:50.266Z,43.90
2018-04-27T10:56:18.588Z,44.03
2018-04-27T10:58:46.928Z,43.22
2018-04-27T11:01:15.253Z,45.39
2018-04-27T11:03:43.600Z,43.69
2018-04-27T11:06:11.929Z,43.78
2018-04-27T11:08:40.318Z,45.12
2018-04-27T11:11:08.601Z,42.75
2018-04-27T11:13:36.941Z,43.94
2018-04-27T11:16:05.256Z,43.55
2018-04-27T11:18:33.600Z,43.18
2018-04-27T11:21:01.921Z,43.25
2018-04-27T11:23:30.260Z,43.43
2018-04-27T11:25:58.588Z,42.17
2018-04-27T11:28:26.928Z,43.53
2018-04-27T11:30:55.249Z,41.88
2018-04-27T11:33:23.592Z,39.93
2018-04-27T11:35:51.917Z,39.28
2018-04-27T11:38:20.261Z,37.84
2018-04-27T11:40:48.579Z,35.86
2018-04-27T11:43:16.921Z,37.11
2018-04-27T11:45:45.235Z,36.61
2018-04-27T11:48:13.583Z,37.14
2018-04-27T11:51:11.412Z,37.54
2018-04-27T11:53:39.756Z,39.30
2018-04-27T11:56:08.175Z,38.80
2018-04-27T11:58:36.426Z,37.28
2018-04-27T12:01:04.749Z,37.90
2018-04-27T12:03:33.094Z,36.83
2018-04-27T12:06:01.417Z,35.96
2018-04-27T12:08:29.793Z,36.25
2018-04-27T12:10:58.120Z,37.02
2018-04-27T12:13:26.914Z,36.87
2018-04-27T12:15:55.301Z,37.15
2018-04-27T12:18:24.331Z,37.34
2018-04-27T12:20:52.731Z,36.24
2018-04-27T12:23:21.077Z,34.70
2018-04-27T12:25:49.407Z,36.98
2018-04-27T12:28:17.762Z,36.54
2018-04-27T12:30:46.085Z,37.12
2018-04-27T12:33:14.411Z,37.02
2018-04-27T12:35:42.747Z,36.80
2018-04-27T12:38:11.082Z,34.17
2018-04-27T12:40:39.424Z,34.09
2018-04-27T12:43:07.749Z,33.71
2018-04-27T12:45:36.094Z,33.73
2018-04-27T12:48:04.427Z,35.53
2018-04-27T12:50:32.772Z,36.33
2018-04-27T12:53:01.100Z,36.35
2018-04-27T12:55:29.456Z,35.11
2018-04-27T12:57:57.785Z,34.64
2018-04-27T13:00:26.132Z,34.83
2018-04-27T13:02:54.451Z,34.66
2018-04-27T13:05:22.792Z,35.25
2018-04-27T13:07:51.164Z,35.95
2018-04-27T13:10:19.463Z,36.57
2018-04-27T13:12:47.787Z,34.41
2018-04-27T13:15:16.132Z,34.10
2018-04-27T13:17:44.456Z,34.21
2018-04-27T13:20:12.796Z,34.50
2018-04-27T13:22:41.120Z,38.69
2018-04-27T13:25:09.461Z,39.62
2018-04-27T13:27:37.785Z,39.97
2018-04-27T13:30:06.147Z,37.17
2018-04-27T13:32:34.460Z,36.97
2018-04-27T13:35:02.840Z,36.95
2018-04-27T13:37:31.156Z,34.96
2018-04-27T13:39:59.559Z,37.35
2018-04-27T13:42:28.912Z,37.36
2018-04-27T13:44:57.264Z,35.55
2018-04-27T13:47:25.593Z,34.19
2018-04-27T13:49:53.939Z,35.40
2018-04-27T13:52:22.323Z,35.17
2018-04-27T13:54:50.785Z,35.79
2018-04-27T13:57:19.226Z,36.55
2018-04-27T13:59:47.568Z,36.84
2018-04-27T14:02:15.898Z,37.87
2018-04-27T14:04:44.241Z,37.47
2018-04-27T14:07:12.573Z,36.17
2018-04-27T14:09:40.923Z,36.73
2018-04-27T14:12:09.253Z,37.46
2018-04-27T14:14:37.596Z,36.32
2018-04-27T14:17:05.925Z,34.85
2018-04-27T14:19:34.261Z,35.70
2018-04-27T14:22:02.593Z,39.11
2018-04-27T14:24:30.940Z,36.40
2018-04-27T14:26:59.261Z,37.75
2018-04-27T14:29:27.599Z,38.02
2018-04-27T14:31:55.998Z,35.84
2018-04-27T14:34:24.248Z,35.95
2018-04-27T14:36:52.593Z,35.76
2018-04-27T14:39:20.916Z,35.36
2018-04-27T14:41:49.261Z,35.50
2018-04-27T14:44:17.592Z,36.65
2018-04-27T14:46:45.933Z,36.27
2018-04-27T14:49:14.261Z,37.01
2018-04-27T14:51:42.600Z,36.27
2018-04-27T14:54:10.933Z,34.88
2018-04-27T14:56:39.303Z,32.45
2018-04-27T14:59:07.613Z,34.54
2018-04-27T15:01:36.006Z,34.46
2018-04-27T15:04:04.276Z,33.95
2018-04-27T15:06:32.628Z,34.48
2018-04-27T15:09:00.948Z,33.55
2018-04-27T15:11:29.292Z,33.47
2018-04-27T15:13:57.616Z,34.49
2018-04-27T15:16:25.976Z,35.83
2018-04-27T15:18:54.300Z,34.74
2018-04-27T15:21:22.644Z,33.39
2018-04-27T15:23:50.973Z,34.25
2018-04-27T15:26:19.316Z,34.01
2018-04-27T15:28:47.653Z,33.27
2018-04-27T15:31:16.004Z,32.99
2018-04-27T15:33:44.372Z,32.46
2018-04-27T15:36:12.817Z,32.24
2018-04-27T15:38:41.081Z,33.54
2018-04-27T15:41:09.420Z,31.86
2018-04-27T15:43:37.746Z,32.68
2018-04-27T15:46:06.089Z,34.09
2018-04-27T15:48:34.413Z,34.81
2018-04-27T15:51:02.761Z,34.68
2018-04-27T15:53:31.084Z,34.82
2018-04-27T15:55:59.429Z,34.47
2018-04-27T15:58:27.752Z,33.46
2018-04-27T16:00:56.105Z,32.66
2018-04-27T16:03:24.847Z,33.91
2018-04-27T16:05:53.288Z,35.02
2018-04-27T16:08:21.613Z,33.40
2018-04-27T16:10:49.960Z,35.04
2018-04-27T16:16:16.661Z,34.57
2018-04-27T16:18:44.984Z,34.56
2018-04-27T16:21:13.384Z,34.42
2018-04-27T16:23:41.660Z,33.61
2018-04-27T16:26:10.004Z,34.53
2018-04-27T16:28:38.328Z,34.93
2018-04-27T16:31:06.668Z,34.68
2018-04-27T16:33:34.996Z,35.17
2018-04-27T16:36:04.310Z,35.30
2018-04-27T16:38:32.625Z,35.65
2018-04-27T16:41:00.977Z,35.15
2018-04-27T16:43:29.304Z,34.98
2018-04-27T16:45:57.644Z,35.68
2018-04-27T16:48:25.980Z,35.92
2018-04-27T16:50:54.325Z,35.38
2018-04-27T16:53:22.646Z,35.44
2018-04-27T16:55:51.009Z,35.22
2018-04-27T16:58:19.340Z,35.88
2018-04-27T17:00:47.671Z,35.41
2018-04-27T17:03:16.020Z,36.06
2018-04-27T17:05:44.354Z,36.57
2018-04-27T17:08:12.704Z,37.04
2018-04-27T17:10:41.033Z,37.65
2018-04-27T17:13:09.394Z,36.99
2018-04-27T17:15:38.553Z,36.68
2018-04-27T17:18:06.891Z,37.30
2018-04-27T17:20:35.211Z,37.88
2018-04-27T17:23:03.552Z,38.90
2018-04-27T17:25:31.876Z,40.16
2018-04-27T17:28:00.216Z,41.30
2018-04-27T17:30:28.541Z,41.02
2018-04-27T17:32:56.892Z,41.39
2018-04-27T17:35:25.295Z,42.32
2018-04-27T17:37:53.557Z,42.03
2018-04-27T17:40:21.947Z,41.48
2018-04-27T17:42:50.220Z,41.39
2018-04-27T17:45:18.553Z,41.97
2018-04-27T17:47:46.900Z,42.27
2018-04-27T17:50:15.224Z,42.74
2018-04-27T17:52:43.569Z,42.74
2018-04-27T17:55:11.893Z,43.32
2018-04-27T17:57:40.235Z,43.82
2018-04-27T18:00:08.560Z,43.83
2018-04-27T18:02:36.908Z,44.15
2018-04-27T18:05:05.235Z,43.14
2018-04-27T18:07:33.621Z,43.23
2018-04-27T18:10:01.906Z,43.07
2018-04-27T18:12:30.741Z,43.15
2018-04-27T18:14:59.072Z,43.13
2018-04-27T18:17:27.412Z,43.42
2018-04-27T18:19:55.732Z,43.61
2018-04-27T18:22:24.078Z,43.50
2018-04-27T18:24:52.401Z,43.80
2018-04-27T18:27:21.752Z,44.03
2018-04-27T18:29:50.126Z,44.13
2018-04-27T18:32:19.301Z,43.84
2018-04-27T18:34:47.631Z,43.86
2018-04-27T18:37:15.977Z,43.95
2018-04-27T18:39:44.301Z,44.35
2018-04-27T18:42:18.524Z,44.57
2018-04-27T18:44:46.850Z,45.12
2018-04-27T18:47:15.188Z,45.10
2018-04-27T18:49:43.517Z,45.26
2018-04-27T18:52:11.867Z,45.63
2018-04-27T18:54:40.820Z,45.45
2018-04-27T18:57:09.164Z,45.55
2018-04-27T18:59:37.492Z,45.77
2018-04-27T19:02:05.861Z,45.86
2018-04-27T19:04:34.188Z,45.82
2018-04-27T19:07:02.515Z,46.04
2018-04-27T19:09:30.864Z,46.40
2018-04-27T19:11:59.200Z,46.67
2018-04-27T19:14:27.548Z,46.80
2018-04-27T19:16:55.860Z,47.33
2018-04-27T19:19:24.212Z,47.71
2018-04-27T19:21:52.532Z,47.85
2018-04-27T19:24:20.887Z,47.92
2018-04-27T19:26:49.218Z,48.39
2018-04-27T19:29:17.570Z,48.99
2018-04-27T19:31:45.902Z,49.39
2018-04-27T19:34:14.291Z,49.50
2018-04-27T19:36:42.612Z,50.00
2018-04-27T19:39:10.969Z,50.54
2018-04-27T19:41:39.298Z,50.84
2018-04-27T19:44:07.643Z,50.83
2018-04-27T19:46:35.972Z,50.61
2018-04-27T19:49:04.320Z,50.50
2018-04-27T19:51:32.656Z,49.86
2018-04-27T19:54:01.008Z,49.74
2018-04-27T19:56:29.352Z,49.54
2018-04-27T19:58:57.735Z,49.49
2018-04-27T20:01:26.048Z,49.58
2018-04-27T20:03:54.380Z,49.67
2018-04-27T20:06:22.715Z,49.53
2018-04-27T20:08:51.055Z,49.98
2018-04-27T20:11:19.462Z,50.31
2018-04-27T20:13:47.778Z,50.47
2018-04-27T20:16:27.876Z,50.72
2018-04-27T20:18:56.224Z,50.97
2018-04-27T20:21:24.545Z,51.22
2018-04-27T20:23:52.892Z,51.53
2018-04-27T20:26:21.213Z,52.08
2018-04-27T20:28:50.506Z,52.17
2018-04-27T20:31:18.845Z,52.26
2018-04-27T20:33:47.188Z,52.38
2018-04-27T20:36:15.512Z,53.04
2018-04-27T20:38:43.871Z,53.57
2018-04-27T20:41:13.184Z,54.02
2018-04-27T20:43:43.049Z,53.89
2018-04-27T20:46:11.377Z,54.49
2018-04-27T20:48:39.728Z,54.48
2018-04-27T20:51:08.859Z,54.89
2018-04-27T20:53:51.945Z,54.80
2018-04-27T20:56:20.268Z,54.96
2018-04-27T20:58:48.611Z,54.98
2018-04-27T21:01:16.935Z,54.90
2018-04-27T21:03:45.297Z,55.02
2018-04-27T21:06:14.215Z,55.22
2018-04-27T21:08:42.560Z,55.06
2018-04-27T21:11:10.885Z,54.81
2018-04-27T21:13:39.228Z,55.27
2018-04-27T21:16:07.558Z,54.95
2018-04-27T21:18:35.904Z,54.88
2018-04-27T21:21:04.236Z,54.75
2018-04-27T21:23:32.589Z,54.79
2018-04-27T21:26:00.925Z,54.95
2018-04-27T21:28:30.789Z,55.38
2018-04-27T21:30:59.912Z,55.25
2018-04-27T21:33:28.232Z,54.94
2018-04-27T21:35:57.177Z,55.06
2018-04-27T21:38:40.395Z,55.29
2018-04-27T21:41:23.751Z,55.60
2018-04-27T21:43:52.849Z,56.00
2018-04-27T21:46:25.133Z,56.21
2018-04-27T21:48:53.469Z,56.17
2018-04-27T21:51:41.217Z,56.32
2018-04-27T21:54:10.465Z,56.61
2018-04-27T21:56:47.336Z,56.56
2018-04-27T21:59:19.156Z,56.71
2018-04-27T22:01:47.480Z,56.73
2018-04-27T22:04:15.825Z,56.93
2018-04-27T22:06:44.144Z,56.72
2018-04-27T22:09:12.496Z,56.84
2018-04-27T22:11:49.540Z,56.75
2018-04-27T22:14:23.221Z,56.82
2018-04-27T22:16:52.328Z,56.96
2018-04-27T22:19:20.685Z,57.23
2018-04-27T22:21:51.731Z,57.29
2018-04-27T22:24:22.793Z,57.41
2018-04-27T22:27:06.157Z,57.61
2018-04-27T22:29:35.324Z,57.84
2018-04-27T22:32:23.252Z,57.80
2018-04-27T22:34:54.300Z,58.09
2018-04-27T22:37:22.615Z,58.15
2018-04-27T22:42:56.586Z,58.31
2018-04-27T22:45:25.680Z,58.33
2018-04-27T22:51:14.628Z,58.95
2018-04-27T22:53:48.513Z,59.11
2018-04-27T22:59:31.436Z,59.68
2018-04-27T23:04:59.541Z,59.60
2018-04-27T23:07:37.001Z,59.78
2018-04-27T23:10:07.108Z,59.88
2018-04-27T23:12:35.441Z,59.88
2018-04-27T23:15:05.465Z,60.00
2018-04-27T23:17:33.817Z,60.03
2018-04-27T23:20:03.732Z,59.58
2018-04-27T23:22:38.483Z,59.33
2018-04-27T23:25:23.436Z,59.44
2018-04-27T23:27:51.764Z,59.58
2018-04-27T23:30:22.649Z,59.70
2018-04-27T23:32:50.981Z,59.87
2018-04-27T23:35:19.321Z,59.86
2018-04-27T23:37:47.661Z,60.10
2018-04-27T23:40:16.004Z,60.43
2018-04-27T23:42:44.332Z,60.71
2018-04-27T23:45:15.217Z,60.68
2018-04-27T23:47:43.535Z,60.93
2018-04-27T23:50:22.449Z,60.46
2018-04-27T23:52:50.776Z,60.60
2018-04-27T23:55:19.132Z,60.76
2018-04-27T23:57:47.465Z,61.03
